CDT,Max TemperatureF,Mean TemperatureF,Min TemperatureF,Max Dew PointF,MeanDew PointF,Min DewpointF,Max Humidity, Mean Humidity, Min Humidity, Max Sea Level PressureIn, Mean Sea Level PressureIn, Min Sea Level PressureIn, Max VisibilityMiles, Mean VisibilityMiles, Min VisibilityMiles, Max Wind SpeedMPH, Mean Wind SpeedMPH, Max Gust SpeedMPH,PrecipitationIn, CloudCover, Events, WindDirDegrees
2013-7-1,86,74,61,67,65,60,100,76,51,29.96,29.91,29.84,10,9,2,14,3,18,0.00,0,,331
2013-7-2,87,75,62,68,63,59,100,70,39,30.05,30.01,29.96,10,7,2,9,3,14,0.00,0,,343
2013-7-3,89,75,61,67,63,59,100,70,40,30.09,30.04,30.00,10,5,0,10,3,14,0.00,0,Fog,29
2013-7-4,90,77,63,71,66,63,100,73,46,30.03,30.00,29.96,10,9,6,13,3,17,0.00,0,,349
2013-7-5,89,77,65,73,69,64,100,78,55,30.04,30.01,29.97,10,8,2,20,5,26,T,1,Thunderstorm,97
2013-7-6,88,77,65,73,70,64,100,79,57,30.06,30.02,29.97,10,8,0,10,5,14,0.00,3,Fog,115
2013-7-7,91,82,72,75,72,71,94,75,56,30.10,30.06,30.02,10,10,8,13,4,17,0.00,3,,125
2013-7-8,92,81,70,74,72,68,100,74,47,30.19,30.13,30.08,10,9,1,8,3,13,0.00,2,,169
2013-7-9,93,82,71,77,75,72,100,78,56,30.20,30.14,30.06,10,9,2,13,3,17,T,2,,181
2013-7-10,93,83,73,76,75,72,94,75,56,30.13,30.06,29.97,10,10,9,10,3,17,0.00,2,,216
2013-7-11,92,82,71,78,74,71,100,82,64,30.00,29.97,29.93,10,9,2,24,4,30,0.08,3,Rain-Thunderstorm,214
2013-7-12,92,78,63,75,68,62,100,71,41,30.00,29.95,29.91,10,5,0,16,4,20,0.00,1,Fog-Rain,351
2013-7-13,90,75,60,68,64,60,100,73,46,30.01,29.97,29.95,10,9,5,10,4,14,0.00,0,,22
2013-7-14,91,77,63,73,68,62,100,78,55,30.05,29.99,29.94,10,8,3,15,4,22,0.16,2,Rain-Thunderstorm,135
2013-7-15,91,79,66,75,71,66,100,78,56,30.16,30.10,30.04,10,10,5,13,4,18,T,1,,106
2013-7-16,91,80,69,73,72,66,100,78,56,30.24,30.18,30.14,10,9,2,16,6,21,0.00,1,,88
2013-7-17,95,83,70,78,72,69,100,73,46,30.28,30.22,30.15,10,9,2,9,3,14,0.00,0,,62
2013-7-18,91,79,67,77,71,67,100,82,63,30.18,30.12,30.06,10,5,0,28,2,35,0.87,2,Fog-Rain-Thunderstorm,48
2013-7-19,91,79,66,75,70,66,100,78,55,30.12,30.05,29.98,10,6,0,9,2,12,0.00,3,Fog,40
2013-7-20,93,81,68,74,70,67,100,72,44,30.02,29.98,29.91,10,6,0,21,2,28,0.00,0,Fog,165
2013-7-21,91,80,69,75,72,69,100,78,56,30.03,29.99,29.95,10,8,0,23,5,35,0.00,2,Fog,193
2013-7-22,94,85,75,76,74,73,94,73,52,30.05,30.00,29.95,10,10,10,14,6,18,0.00,3,Rain,212
2013-7-23,93,85,77,76,75,72,94,72,49,30.04,29.98,29.90,10,10,6,12,5,20,T,3,Rain,236
2013-7-24,86,80,73,79,73,69,100,87,74,29.98,29.94,29.90,10,7,0,15,3,24,2.39,5,Fog-Rain-Thunderstorm,289
2013-7-25,90,79,68,74,69,66,100,74,47,30.08,30.01,29.93,10,6,0,12,4,16,0.00,1,Fog,14
2013-7-26,87,75,63,73,68,63,100,78,55,30.10,30.05,29.96,10,8,0,16,4,78,0.01,0,Fog,139
2013-7-27,85,78,71,75,73,70,94,82,70,29.99,29.93,29.89,10,6,0,15,5,25,2.94,7,Fog-Rain-Thunderstorm,69
2013-7-28,90,79,67,75,70,66,97,75,52,30.04,29.99,29.94,10,6,1,9,3,13,0.00,0,Rain,17
2013-7-29,92,81,70,77,72,69,94,73,52,30.13,30.06,30.02,10,6,0,9,3,,0.00,1,Fog,118
2013-7-30,93,82,71,77,73,71,100,78,56,30.18,30.12,30.06,10,7,0,10,3,,T,0,Fog,183
2013-7-31,94,84,73,76,72,66,94,69,44,30.12,30.05,29.97,10,9,5,8,3,13,0.00,0,,231